createdAt,value
2022-10-19T00:01:24.147Z,9.80
2022-10-19T00:03:56.310Z,7.40
2022-10-19T00:06:34.867Z,7.20
2022-10-19T00:09:15.900Z,7.20
2022-10-19T00:11:47.922Z,7.40
2022-10-19T00:14:23.828Z,7.50
2022-10-19T00:16:53.665Z,8.10
2022-10-19T00:19:28.031Z,8.70
2022-10-19T00:21:56.489Z,9.10
2022-10-19T00:24:24.823Z,7.70
2022-10-19T00:26:53.186Z,6.10
2022-10-19T00:29:22.253Z,9.50
2022-10-19T00:31:51.556Z,9.60
2022-10-19T00:34:19.980Z,8.00
2022-10-19T00:36:48.338Z,7.40
2022-10-19T00:39:18.090Z,7.20
2022-10-19T00:41:47.549Z,7.20
2022-10-19T00:44:16.091Z,7.90
2022-10-19T00:46:50.310Z,12.00
2022-10-19T00:49:25.811Z,8.30
2022-10-19T00:52:01.852Z,8.90
2022-10-19T00:54:33.303Z,7.60
2022-10-19T00:57:01.799Z,7.80
2022-10-19T00:59:32.125Z,11.10
2022-10-19T01:02:04.226Z,8.10
2022-10-19T01:04:36.235Z,10.10
2022-10-19T01:07:07.021Z,10.90
2022-10-19T01:09:35.456Z,9.00
2022-10-19T01:12:31.505Z,7.90
2022-10-19T01:15:28.633Z,8.30
2022-10-19T01:18:00.186Z,8.30
2022-10-19T01:20:34.197Z,8.90
2022-10-19T01:23:39.508Z,8.10
2022-10-19T01:26:44.746Z,8.90
2022-10-19T01:30:00.181Z,8.90
2022-10-19T01:32:55.549Z,7.10
2022-10-19T01:35:37.962Z,10.20
2022-10-19T01:38:14.328Z,9.70
2022-10-19T01:40:56.644Z,8.50
2022-10-19T01:43:55.650Z,7.80
2022-10-19T01:46:33.754Z,7.90
2022-10-19T01:49:13.703Z,8.00
2022-10-19T01:51:56.451Z,7.90
2022-10-19T01:54:30.691Z,9.80
2022-10-19T01:57:03.118Z,10.50
2022-10-19T01:59:33.589Z,7.40
2022-10-19T02:02:05.306Z,10.10
2022-10-19T02:04:35.614Z,8.10
2022-10-19T02:07:06.215Z,7.80
2022-10-19T02:09:34.522Z,10.90
2022-10-19T02:12:09.660Z,9.30
2022-10-19T02:14:46.449Z,10.50
2022-10-19T02:17:25.149Z,9.30
2022-10-19T02:19:54.933Z,11.50
2022-10-19T02:22:23.258Z,10.50
2022-10-19T02:24:51.616Z,11.30
2022-10-19T02:27:20.117Z,10.20
2022-10-19T02:29:48.421Z,9.70
2022-10-19T02:32:17.166Z,8.50
2022-10-19T02:34:45.649Z,10.90
2022-10-19T02:37:14.167Z,9.90
2022-10-19T02:39:42.561Z,8.90
2022-10-19T02:42:55.574Z,8.60
2022-10-19T02:45:32.120Z,10.00
2022-10-19T02:48:07.450Z,8.30
2022-10-19T02:50:36.323Z,8.70
2022-10-19T02:53:04.663Z,10.60
2022-10-19T02:55:33.052Z,8.00
2022-10-19T02:58:01.374Z,9.10
2022-10-19T03:00:29.900Z,9.40
2022-10-19T03:02:58.345Z,9.70
2022-10-19T03:05:26.770Z,11.90
2022-10-19T03:07:55.125Z,10.00
2022-10-19T03:10:24.438Z,10.20
2022-10-19T03:12:52.762Z,8.60
2022-10-19T03:15:21.160Z,11.80
2022-10-19T03:17:54.040Z,10.30
2022-10-19T03:20:22.336Z,12.20
2022-10-19T03:22:50.724Z,10.90
2022-10-19T03:25:19.157Z,9.90
2022-10-19T03:27:47.413Z,10.40
2022-10-19T03:30:15.938Z,10.10
2022-10-19T03:32:44.310Z,9.90
2022-10-19T03:35:12.570Z,9.40
2022-10-19T03:37:41.044Z,11.60
2022-10-19T03:40:10.347Z,10.60
2022-10-19T03:42:38.730Z,8.50
2022-10-19T03:45:08.013Z,8.60
2022-10-19T03:47:36.555Z,10.70
2022-10-19T03:50:06.298Z,11.30
2022-10-19T03:52:34.533Z,8.00
2022-10-19T03:55:02.829Z,8.20
2022-10-19T03:57:31.218Z,11.70
2022-10-19T03:59:59.625Z,9.30
2022-10-19T04:02:28.006Z,9.90
2022-10-19T04:04:56.301Z,10.90
2022-10-19T04:07:24.573Z,9.40
2022-10-19T04:09:52.943Z,11.70
2022-10-19T04:12:21.307Z,11.00
2022-10-19T04:14:57.841Z,15.90
2022-10-19T04:17:26.606Z,8.90
2022-10-19T04:19:54.890Z,10.70
2022-10-19T04:22:23.181Z,11.30
2022-10-19T04:24:51.451Z,14.00
2022-10-19T04:27:19.755Z,11.90
2022-10-19T04:29:48.002Z,16.00
2022-10-19T04:32:16.309Z,12.50
2022-10-19T04:34:44.555Z,13.10
2022-10-19T04:37:12.792Z,15.30
2022-10-19T04:39:43.397Z,14.50
2022-10-19T04:42:11.877Z,14.70
2022-10-19T04:44:40.324Z,11.80
2022-10-19T04:47:08.619Z,14.80
2022-10-19T04:49:36.914Z,16.60
2022-10-19T04:52:05.203Z,13.10
2022-10-19T04:54:33.560Z,12.90
2022-10-19T04:57:01.945Z,13.10
2022-10-19T04:59:30.289Z,12.90
2022-10-19T05:01:58.673Z,12.80
2022-10-19T05:04:27.008Z,12.30
2022-10-19T05:06:55.268Z,13.50
2022-10-19T05:09:23.696Z,12.30
2022-10-19T05:11:52.133Z,11.50
2022-10-19T05:14:20.533Z,13.40
2022-10-19T05:16:48.897Z,11.50
2022-10-19T05:19:17.343Z,11.60
2022-10-19T05:21:45.618Z,12.30
2022-10-19T05:24:13.993Z,13.50
2022-10-19T05:26:42.538Z,11.50
2022-10-19T05:29:13.459Z,14.80
2022-10-19T05:31:41.782Z,14.00
2022-10-19T05:34:10.128Z,13.50
2022-10-19T05:36:39.770Z,12.90
2022-10-19T05:39:15.850Z,12.30
2022-10-19T05:41:47.439Z,13.20
2022-10-19T05:44:22.048Z,12.50
2022-10-19T05:46:55.252Z,11.30
2022-10-19T05:49:24.968Z,13.20
2022-10-19T05:51:56.580Z,11.70
2022-10-19T05:54:28.501Z,13.10
2022-10-19T05:56:59.897Z,13.70
2022-10-19T05:59:29.533Z,15.60
2022-10-19T06:01:57.995Z,17.20
2022-10-19T06:04:26.497Z,16.70
2022-10-19T06:06:56.974Z,15.70
2022-10-19T06:09:25.354Z,16.10
2022-10-19T06:11:53.707Z,17.80
2022-10-19T06:14:21.993Z,20.70
2022-10-19T06:16:50.310Z,21.30
2022-10-19T06:19:19.421Z,25.90
2022-10-19T06:21:47.705Z,23.00
2022-10-19T06:24:16.017Z,23.20
2022-10-19T06:26:44.381Z,22.90
2022-10-19T06:29:12.934Z,24.40
2022-10-19T06:31:41.297Z,26.80
2022-10-19T06:34:09.732Z,27.60
2022-10-19T06:36:38.308Z,21.80
2022-10-19T06:39:06.623Z,26.10
2022-10-19T06:41:35.194Z,22.70
2022-10-19T06:44:16.975Z,24.20
2022-10-19T06:46:45.303Z,18.00
2022-10-19T06:49:14.879Z,25.20
2022-10-19T06:54:11.776Z,21.50
2022-10-19T06:59:24.385Z,22.60
2022-10-19T07:01:57.612Z,22.40
2022-10-19T07:04:27.017Z,25.50
2022-10-19T07:06:58.412Z,23.00
2022-10-19T07:09:38.477Z,18.00
2022-10-19T07:12:11.750Z,22.50
2022-10-19T07:14:51.247Z,19.20
2022-10-19T07:17:22.778Z,19.40
2022-10-19T07:19:55.064Z,17.40
2022-10-19T07:22:37.555Z,19.40
2022-10-19T07:25:13.277Z,18.60
2022-10-19T07:27:44.942Z,16.60
2022-10-19T07:33:32.703Z,19.90
2022-10-19T07:36:18.094Z,22.50
2022-10-19T07:38:47.876Z,18.60
2022-10-19T07:41:50.034Z,19.00
2022-10-19T07:44:40.996Z,18.60
2022-10-19T07:47:24.188Z,21.40
2022-10-19T07:50:05.407Z,20.40
2022-10-19T07:53:14.893Z,22.70
2022-10-19T07:55:53.202Z,20.80
2022-10-19T07:58:34.901Z,21.30
2022-10-19T08:01:10.659Z,20.50
2022-10-19T08:04:31.656Z,20.90
2022-10-19T08:06:29.547Z,18.30
2022-10-19T08:09:02.149Z,22.00
2022-10-19T08:11:36.546Z,22.60
2022-10-19T08:14:16.755Z,18.10
2022-10-19T08:16:47.289Z,19.90
2022-10-19T08:19:17.671Z,17.90
2022-10-19T08:21:47.560Z,20.70
2022-10-19T08:24:19.522Z,22.60
2022-10-19T08:26:54.259Z,21.50
2022-10-19T08:29:25.593Z,22.40
2022-10-19T08:31:56.737Z,20.70
2022-10-19T08:34:26.455Z,20.80
2022-10-19T08:36:55.906Z,21.20
2022-10-19T08:39:24.966Z,20.50
2022-10-19T08:42:22.596Z,22.00
2022-10-19T08:45:07.789Z,20.30
2022-10-19T08:47:56.218Z,17.70
2022-10-19T08:50:29.373Z,21.10
2022-10-19T08:53:13.021Z,22.30
2022-10-19T08:59:33.023Z,20.50
2022-10-19T09:02:13.858Z,22.60
2022-10-19T09:04:52.885Z,20.80
2022-10-19T09:07:26.204Z,19.40
2022-10-19T09:10:09.456Z,22.20
2022-10-19T09:12:50.624Z,24.10
2022-10-19T09:15:46.089Z,25.40
2022-10-19T09:18:30.530Z,20.30
2022-10-19T09:21:13.494Z,19.60
2022-10-19T09:24:16.313Z,19.70
2022-10-19T09:26:54.995Z,18.20
2022-10-19T09:30:12.057Z,17.30
2022-10-19T09:32:41.117Z,16.60
2022-10-19T09:35:36.306Z,14.90
2022-10-19T09:38:08.010Z,14.40
2022-10-19T09:40:36.455Z,16.30
2022-10-19T09:43:20.988Z,12.20
2022-10-19T09:46:01.250Z,11.70
2022-10-19T09:48:47.767Z,9.60
2022-10-19T09:51:18.381Z,6.80
2022-10-19T09:53:55.481Z,6.70
2022-10-19T09:56:28.469Z,5.90
2022-10-19T09:58:59.352Z,6.70
2022-10-19T10:01:41.565Z,7.10
2022-10-19T10:04:17.023Z,5.10
2022-10-19T10:06:48.449Z,6.20
2022-10-19T10:09:19.846Z,4.70
2022-10-19T10:11:51.508Z,4.40
2022-10-19T10:14:35.770Z,5.00
2022-10-19T10:17:19.464Z,5.80
2022-10-19T10:19:59.808Z,5.30
2022-10-19T10:22:36.029Z,7.40
2022-10-19T10:25:18.358Z,4.80
2022-10-19T10:28:18.208Z,7.40
2022-10-19T10:30:49.201Z,7.00
2022-10-19T10:33:43.844Z,6.10
2022-10-19T10:36:13.819Z,4.70
2022-10-19T10:38:53.728Z,5.90
2022-10-19T10:41:23.955Z,8.00
2022-10-19T10:44:07.016Z,5.50
2022-10-19T10:47:05.870Z,4.40
2022-10-19T10:49:37.609Z,6.30
2022-10-19T10:52:12.362Z,6.40
2022-10-19T10:54:41.138Z,6.10
2022-10-19T10:57:17.093Z,6.10
2022-10-19T10:59:57.923Z,6.50
2022-10-19T11:03:02.717Z,6.90
2022-10-19T11:05:41.666Z,5.10
2022-10-19T11:08:13.245Z,4.50
2022-10-19T11:10:59.597Z,5.50
2022-10-19T11:13:59.254Z,5.60
2022-10-19T11:16:35.702Z,5.00
2022-10-19T11:19:22.514Z,4.30
2022-10-19T11:22:00.676Z,5.40
2022-10-19T11:24:38.105Z,5.00
2022-10-19T11:27:09.253Z,6.30
2022-10-19T11:30:22.229Z,5.70
2022-10-19T11:32:50.467Z,8.50
2022-10-19T11:35:39.891Z,6.20
2022-10-19T11:41:37.178Z,5.60
2022-10-19T11:44:24.091Z,5.30
2022-10-19T11:46:57.284Z,7.10
2022-10-19T11:50:23.709Z,5.50
2022-10-19T11:53:16.085Z,5.80
2022-10-19T11:56:04.455Z,7.00
2022-10-19T12:02:22.840Z,5.50
2022-10-19T12:05:21.550Z,5.10
2022-10-19T12:08:41.292Z,6.10
2022-10-19T12:11:21.650Z,5.30
2022-10-19T12:13:57.453Z,4.80
2022-10-19T12:16:37.769Z,5.50
2022-10-19T12:19:13.098Z,4.80
2022-10-19T12:21:43.732Z,4.60
2022-10-19T12:24:24.973Z,5.40
2022-10-19T12:26:55.212Z,7.50
2022-10-19T12:29:29.750Z,6.10
2022-10-19T12:32:01.290Z,4.70
2022-10-19T12:35:05.013Z,5.50
2022-10-19T12:37:53.881Z,5.20
2022-10-19T12:40:31.596Z,5.30
2022-10-19T12:43:24.015Z,6.10
2022-10-19T12:46:10.430Z,5.50
2022-10-19T12:48:39.502Z,6.20
2022-10-19T12:51:16.560Z,7.50
2022-10-19T12:53:49.362Z,5.80
2022-10-19T12:56:25.515Z,6.60
2022-10-19T12:59:01.603Z,6.20
2022-10-19T13:01:44.578Z,5.90
2022-10-19T13:04:36.254Z,7.70
2022-10-19T13:07:09.341Z,6.10
2022-10-19T13:09:39.646Z,6.60
2022-10-19T13:12:16.436Z,6.50
2022-10-19T13:14:58.736Z,6.20
2022-10-19T13:17:46.669Z,7.50
2022-10-19T13:20:14.957Z,6.90
2022-10-19T13:23:03.628Z,6.90
2022-10-19T13:25:32.405Z,6.70
2022-10-19T13:28:07.564Z,8.10
2022-10-19T13:30:35.770Z,6.90
2022-10-19T13:33:24.706Z,9.20
2022-10-19T13:35:59.103Z,6.80
2022-10-19T13:38:42.628Z,7.70
2022-10-19T13:41:25.344Z,7.00
2022-10-19T13:44:22.985Z,6.00
2022-10-19T13:47:19.701Z,7.00
2022-10-19T13:50:16.711Z,7.20
2022-10-19T13:53:14.430Z,6.90
2022-10-19T13:55:56.731Z,6.10
2022-10-19T13:59:00.089Z,6.30
2022-10-19T14:02:00.773Z,7.40
2022-10-19T14:05:06.244Z,7.50
2022-10-19T14:07:50.129Z,6.90
2022-10-19T14:10:25.147Z,5.50
2022-10-19T14:13:03.267Z,6.10
2022-10-19T14:15:35.162Z,6.30
2022-10-19T14:18:05.825Z,6.30
2022-10-19T14:20:39.025Z,6.10
2022-10-19T14:23:29.072Z,5.60
2022-10-19T14:26:11.158Z,6.40
2022-10-19T14:28:41.227Z,6.20
2022-10-19T14:31:20.083Z,6.70
2022-10-19T14:33:52.878Z,6.10
2022-10-19T14:36:25.409Z,8.40
2022-10-19T14:38:56.277Z,8.20
2022-10-19T14:41:27.324Z,8.40
2022-10-19T14:44:00.532Z,6.10
2022-10-19T14:46:32.271Z,6.00
2022-10-19T14:49:04.947Z,6.00
2022-10-19T14:51:45.571Z,7.00
2022-10-19T14:54:37.608Z,8.40
2022-10-19T14:57:11.176Z,7.00
2022-10-19T14:59:55.144Z,7.20
2022-10-19T15:02:50.990Z,8.80
2022-10-19T15:05:23.962Z,9.90
2022-10-19T15:07:52.979Z,11.70
2022-10-19T15:10:26.125Z,12.10
2022-10-19T15:13:04.725Z,11.30
2022-10-19T15:15:35.726Z,13.00
2022-10-19T15:18:06.899Z,8.20
2022-10-19T15:20:49.564Z,10.60
2022-10-19T15:23:43.360Z,7.60
2022-10-19T15:26:26.702Z,6.90
2022-10-19T15:29:08.168Z,6.90
2022-10-19T15:31:36.588Z,7.50
2022-10-19T15:34:05.576Z,8.50
2022-10-19T15:36:33.932Z,8.90
2022-10-19T15:39:24.934Z,8.40
2022-10-19T15:41:55.812Z,8.10
2022-10-19T15:44:43.629Z,9.20
2022-10-19T15:47:19.332Z,9.20
2022-10-19T15:50:01.312Z,10.40
2022-10-19T15:52:34.277Z,10.10
2022-10-19T15:55:02.795Z,8.60
2022-10-19T15:57:32.641Z,11.00
2022-10-19T16:00:12.976Z,9.00
2022-10-19T16:02:41.701Z,10.20
2022-10-19T16:05:11.059Z,12.50
2022-10-19T16:07:41.192Z,9.50
2022-10-19T16:10:21.025Z,10.00
2022-10-19T16:12:49.425Z,8.20
2022-10-19T16:15:23.485Z,9.60
2022-10-19T16:17:59.244Z,8.00
2022-10-19T16:20:30.112Z,7.60
2022-10-19T16:22:58.878Z,7.20
2022-10-19T16:25:27.202Z,6.70
2022-10-19T16:27:55.476Z,6.30
2022-10-19T16:30:23.789Z,7.60
2022-10-19T16:32:52.078Z,4.90
2022-10-19T16:35:20.442Z,9.10
2022-10-19T16:37:48.699Z,5.60
2022-10-19T16:40:17.679Z,4.60
2022-10-19T16:42:45.906Z,6.60
2022-10-19T16:45:14.249Z,6.90
2022-10-19T16:47:42.621Z,5.60
2022-10-19T16:50:11.603Z,6.00
2022-10-19T16:52:40.200Z,6.30
2022-10-19T16:55:09.122Z,6.00
2022-10-19T16:57:37.860Z,6.60
2022-10-19T17:00:09.584Z,7.70
2022-10-19T17:02:39.850Z,6.70
2022-10-19T17:05:11.292Z,6.60
2022-10-19T17:07:39.574Z,6.00
2022-10-19T17:10:08.303Z,6.80
2022-10-19T17:12:41.059Z,7.30
2022-10-19T17:15:40.941Z,11.00
2022-10-19T17:17:59.528Z,8.60
2022-10-19T17:20:27.797Z,6.20
2022-10-19T17:22:56.037Z,6.40
2022-10-19T17:25:24.489Z,8.00
2022-10-19T17:27:52.765Z,9.40
2022-10-19T17:30:21.005Z,7.00
2022-10-19T17:32:50.286Z,6.30
2022-10-19T17:35:18.576Z,6.80
2022-10-19T17:37:46.886Z,7.40
2022-10-19T17:40:15.292Z,7.30
2022-10-19T17:42:43.499Z,7.70
2022-10-19T17:45:11.883Z,7.30
2022-10-19T17:47:40.365Z,6.20
2022-10-19T17:50:09.345Z,7.60
2022-10-19T17:52:37.607Z,10.00
2022-10-19T17:55:12.098Z,7.20
2022-10-19T17:57:40.944Z,7.10
2022-10-19T18:00:09.777Z,8.80
2022-10-19T18:02:40.863Z,6.30
2022-10-19T18:05:09.905Z,10.40
2022-10-19T18:07:38.370Z,6.50
2022-10-19T18:10:06.964Z,6.10
2022-10-19T18:12:35.312Z,5.80
2022-10-19T18:15:04.560Z,8.30
2022-10-19T18:17:32.960Z,7.00
2022-10-19T18:20:01.359Z,6.20
2022-10-19T18:22:29.672Z,4.80
2022-10-19T18:24:57.949Z,5.80
2022-10-19T18:27:26.232Z,6.00
2022-10-19T18:29:54.699Z,5.60
2022-10-19T18:32:22.956Z,7.60
2022-10-19T18:34:51.233Z,5.90
2022-10-19T18:37:19.732Z,7.20
2022-10-19T18:39:48.754Z,7.00
2022-10-19T18:42:17.990Z,4.80
2022-10-19T18:44:47.618Z,7.70
2022-10-19T18:47:15.873Z,7.50
2022-10-19T18:49:44.187Z,7.10
2022-10-19T18:52:12.480Z,6.60
2022-10-19T18:54:40.728Z,6.10
2022-10-19T18:57:09.296Z,7.60
2022-10-19T18:59:37.598Z,4.90
2022-10-19T19:02:13.622Z,4.90
2022-10-19T19:04:50.925Z,6.80
2022-10-19T19:07:19.969Z,6.40
2022-10-19T19:09:50.241Z,7.00
2022-10-19T19:12:18.483Z,4.70
2022-10-19T19:14:47.114Z,5.00
2022-10-19T19:17:15.487Z,4.80
2022-10-19T19:19:43.875Z,4.70
2022-10-19T19:22:12.251Z,7.00
2022-10-19T19:24:42.206Z,5.90
2022-10-19T19:27:10.730Z,5.80
2022-10-19T19:29:39.037Z,5.10
2022-10-19T19:32:07.379Z,5.50
2022-10-19T19:34:36.198Z,7.50
2022-10-19T19:37:08.774Z,5.40
2022-10-19T19:39:40.197Z,4.50
2022-10-19T19:42:08.708Z,4.90
2022-10-19T19:44:36.940Z,4.10
2022-10-19T19:47:06.156Z,4.90
2022-10-19T19:49:34.372Z,5.50
2022-10-19T19:52:02.609Z,8.40
2022-10-19T19:54:31.349Z,4.50
2022-10-19T19:56:59.595Z,6.30
2022-10-19T19:59:27.919Z,7.40
2022-10-19T20:01:56.281Z,6.70
2022-10-19T20:04:24.609Z,6.20
2022-10-19T20:06:52.998Z,5.20
2022-10-19T20:09:21.372Z,6.90
2022-10-19T20:11:49.597Z,7.00
2022-10-19T20:14:19.039Z,7.00
2022-10-19T20:19:15.610Z,7.40
2022-10-19T20:21:44.249Z,5.80
2022-10-19T20:24:12.665Z,6.70
2022-10-19T20:26:40.925Z,6.10
2022-10-19T20:29:09.319Z,6.60
2022-10-19T20:31:41.443Z,6.70
2022-10-19T20:34:13.874Z,6.40
2022-10-19T20:36:43.021Z,8.20
2022-10-19T20:39:11.359Z,6.80
2022-10-19T20:41:39.914Z,5.10
2022-10-19T20:44:08.314Z,5.50
2022-10-19T20:46:37.245Z,5.50
2022-10-19T20:49:05.714Z,6.00
2022-10-19T20:51:39.060Z,7.80
2022-10-19T20:54:12.410Z,5.80
2022-10-19T20:56:42.397Z,6.10
2022-10-19T20:59:20.398Z,8.50
2022-10-19T21:01:53.865Z,5.50
2022-10-19T21:04:22.697Z,8.10
2022-10-19T21:06:52.086Z,6.50
2022-10-19T21:09:23.698Z,6.10
2022-10-19T21:11:52.886Z,6.50
2022-10-19T21:14:27.217Z,5.20
2022-10-19T21:16:58.796Z,6.40
2022-10-19T21:19:29.396Z,6.40
2022-10-19T21:22:04.464Z,4.80
2022-10-19T21:24:36.253Z,6.00
2022-10-19T21:27:07.858Z,6.80
2022-10-19T21:29:37.553Z,8.70
2022-10-19T21:32:06.726Z,8.30
2022-10-19T21:34:35.041Z,4.90
2022-10-19T21:37:04.113Z,7.40
2022-10-19T21:39:32.399Z,5.40
2022-10-19T21:42:00.633Z,5.60
2022-10-19T21:44:28.979Z,5.50
2022-10-19T21:46:57.245Z,5.40
2022-10-19T21:49:25.632Z,5.90
2022-10-19T22:04:05.713Z,5.80
2022-10-19T22:06:36.482Z,5.50
2022-10-19T22:09:07.608Z,7.00
2022-10-19T22:11:36.123Z,4.00
2022-10-19T22:14:05.646Z,7.30
2022-10-19T22:19:05.926Z,6.80
2022-10-19T22:21:35.567Z,6.80
2022-10-19T22:24:12.824Z,6.00
2022-10-19T22:26:46.323Z,4.40
2022-10-19T22:29:14.900Z,5.20
2022-10-19T22:31:43.489Z,4.30
2022-10-19T22:34:16.576Z,3.80
2022-10-19T22:36:45.493Z,4.90
2022-10-19T22:39:15.005Z,3.60
2022-10-19T22:41:43.477Z,4.60
2022-10-19T22:44:12.029Z,6.30
2022-10-19T22:46:40.531Z,5.40
2022-10-19T22:51:42.923Z,6.00
2022-10-19T22:54:11.508Z,3.70
2022-10-19T22:56:40.749Z,4.80
2022-10-19T22:59:09.474Z,5.90
2022-10-19T23:01:38.368Z,3.80
2022-10-19T23:04:07.118Z,3.70
2022-10-19T23:06:35.648Z,3.30
2022-10-19T23:09:04.397Z,3.80
2022-10-19T23:11:33.104Z,3.20
2022-10-19T23:14:01.894Z,3.60
2022-10-19T23:16:30.603Z,3.90
2022-10-19T23:18:59.066Z,3.00
2022-10-19T23:21:27.661Z,3.20
2022-10-19T23:23:56.127Z,2.40
2022-10-19T23:26:25.285Z,3.20
2022-10-19T23:28:53.637Z,2.90
2022-10-19T23:31:26.573Z,2.40
2022-10-19T23:33:55.113Z,2.40
2022-10-19T23:36:28.992Z,2.70
2022-10-19T23:38:58.879Z,4.30
2022-10-19T23:41:27.589Z,4.60
2022-10-19T23:43:56.156Z,1.90
2022-10-19T23:46:24.633Z,2.40
2022-10-19T23:48:53.008Z,2.50
2022-10-19T23:51:22.215Z,2.00
2022-10-19T23:53:52.979Z,1.90
2022-10-19T23:56:24.923Z,1.80
2022-10-19T23:58:54.583Z,2.50
